Архив погоды в Канчалане

Метеограмма Канчалан
Воскресенье, 22 Июля
Время местн. Темп Ветер Видим Явления Облачность нижн/средн/верх Атм. давл. Влжн Точка росы ВНГО R Сост. почвы Tg s
Напр Скр Прв ур.ст ур.м изм
12:00 +12.5° С-В 3 6 более 50 км - облачно 758 760 -0.8 77% +8.6° 1 км - - - -
09:00 +10.9° В 4 6 более 50 км - облачно 759 761 -0.3 84% +8.3° 300 м - - - -
06:00 +9.6° В 4 7 20 км - облачно 759 761 -0.7 94% +8.7° 300 м 0.6 Влажная (без луж) +9° -
03:00 +9.1° В 3 8 более 50 км - облачно 760 762 -0.9 94% +8.2° 300 м - - - -
00:00 +9.5° В 5 8 более 50 км небо без изменений {ливневые осадки} облачно 761 762 -0.2 91% +8.1° 300 м - - - -
Суббота, 21 Июля
Время местн. Темп Ветер Видим Явления Облачность нижн/средн/верх Атм. давл. Влжн Точка росы ВНГО R Сост. почвы Tg s
Напр Скр Прв ур.ст ур.м изм
21:00 +10.4° В,Ю-В 3 10 4 км умеренный или сильный ливневый дождь облачно 761 763 +0.2 93% +9.3° 600 м - - - -
18:00 +12.3° Ю-В 6 10 более 50 км - облачно 761 762 0 82% +9.3° 1 км 0 - - -
15:00 +13.3° Ю 5 8 более 50 км - облачно 761 762 -0.2 81% +10.1° 1 км - - - -
12:00 +13.7° Ю,Ю-В 3 8 более 50 км - облачно 761 763 +0.1 78% +9.9° 1 км - - - -
09:00 +11.6° В 6 - 50 км - облачно 761 763 +0.3 85% +9.2° 300 м - - - -
06:00 +10.1° В 6 8 более 50 км поземный туман клочками облачно 761 762 +0.2 91% +8.7° 300 м 0 Влажная (без луж) +10° -
03:00 +9.9° В 5 9 20 км поземный туман клочками облачно 760 762 -0.1 92% +8.7° 300 м - - - -
00:00 +10° В 5 10 20 км поземный туман клочками облачно 760 762 +0.1 94% +9.1° 300 м - - - -
Пятница, 20 Июля
Время местн. Темп Ветер Видим Явления Облачность нижн/средн/верх Атм. давл. Влжн Точка росы ВНГО R Сост. почвы Tg s
Напр Скр Прв ур.ст ур.м изм
21:00 +10.9° В 7 11 20 км - облачно 760 762 +0.3 91% +9.5° 300 м - - - -
18:00 +12.3° В 7 11 20 км небо без изменений {дождь} облачно 760 762 -0.1 88% +10.4° 600 м 0.4 - - -
15:00 +15.4° В 7 10 более 50 км небо без изменений {дождь} облачно 760 762 -0.2 78% +11.6° 1 км - - - -
12:00 +12.1° В 6 9 10 км слабый непрерывный дождь облачно 760 762 +0.3 93% +11° 300 м - - - -
09:00 +12.1° В 5 7 10 км слабый дождь с перерывами облачно 760 762 +0.5 93% +11° 300 м - - - -
06:00 +11.1° С-В 2 6 более 50 км небо без изменений {дождь} облачно 760 761 +0.6 92% +9.8° 300 м 1 Влажная (без луж) +10° -
03:00 +10.8° В,С-В 4 7 4 км умеренный непрерывный дождь облачно 759 761 +0.5 94% +9.9° 300 м - - - -
00:00 +10.9° С-В 4 7 4 км умеренный непрерывный дождь облачно 759 760 +0.6 95% +10.1° 300 м - - - -
Четверг, 19 Июля
Время местн. Темп Ветер Видим Явления Облачность нижн/средн/верх Атм. давл. Влжн Точка росы ВНГО R Сост. почвы Tg s
Напр Скр Прв ур.ст ур.м изм
21:00 +12.2° В 4 6 4 км умеренный непрерывный дождь облачно 758 760 +1.2 91% +10.8° 300 м - - - -
18:00 +13.8° Ю 3 7 4 км - облачно 757 758 +0.7 91% +12.4° 600 м 0.3 - - -
15:00 +15° В,С-В 3 6 более 50 км - облачно 756 758 0 73% +10.2° более 2.5 км - - - -
12:00 +15.9° В 4 5 более 50 км - преимущественно облачно 756 758 0 62% +8.6° более 2.5 км - - - -
09:00 +15.7° В 1 7 более 50 км - облачно с прояснениями 756 758 +0.6 59% +7.7° более 2.5 км - - - -